createdAt,value
2022-09-15T00:01:45.954Z,85.99
2022-09-15T00:04:52.141Z,86.36
2022-09-15T00:07:59.200Z,86.47
2022-09-15T00:11:12.950Z,86.48
2022-09-15T00:14:19.948Z,86.88
2022-09-15T00:17:25.835Z,86.99
2022-09-15T00:20:32.941Z,86.91
2022-09-15T00:23:39.909Z,87.31
2022-09-15T00:26:49.634Z,87.16
2022-09-15T00:29:55.683Z,86.84
2022-09-15T00:33:03.992Z,86.92
2022-09-15T00:36:14.521Z,87.08
2022-09-15T00:39:21.878Z,86.86
2022-09-15T00:42:31.192Z,86.92
2022-09-15T00:45:38.234Z,86.53
2022-09-15T00:48:49.070Z,86.63
2022-09-15T00:52:03.572Z,87.15
2022-09-15T00:55:12.608Z,86.93
2022-09-15T00:58:29.049Z,86.98
2022-09-15T01:01:36.053Z,86.94
2022-09-15T01:04:43.392Z,87.08
2022-09-15T01:07:52.698Z,87.40
2022-09-15T01:10:59.925Z,87.41
2022-09-15T01:14:11.430Z,87.70
2022-09-15T01:17:30.023Z,87.86
2022-09-15T01:20:59.502Z,87.66
2022-09-15T01:24:45.297Z,87.99
2022-09-15T01:28:33.024Z,88.10
2022-09-15T01:32:00.275Z,88.56
2022-09-15T01:35:17.994Z,88.18
2022-09-15T01:38:31.290Z,88.57
2022-09-15T01:41:43.342Z,88.46
2022-09-15T01:44:55.273Z,88.52
2022-09-15T01:48:07.730Z,88.51
2022-09-15T01:51:14.974Z,88.95
2022-09-15T01:54:26.342Z,88.87
2022-09-15T01:57:33.668Z,89.10
2022-09-15T02:00:45.134Z,89.24
2022-09-15T02:04:00.676Z,89.63
2022-09-15T02:07:14.997Z,89.95
2022-09-15T02:10:30.129Z,90.35
2022-09-15T02:13:45.566Z,90.24
2022-09-15T02:16:56.615Z,90.48
2022-09-15T02:20:16.379Z,90.79
2022-09-15T02:23:29.082Z,90.85
2022-09-15T02:26:38.660Z,91.24
2022-09-15T02:29:50.622Z,91.83
2022-09-15T02:33:00.432Z,91.61
2022-09-15T02:36:13.517Z,91.93
2022-09-15T02:39:24.391Z,92.00
2022-09-15T02:42:33.244Z,92.08
2022-09-15T02:45:39.407Z,92.17
2022-09-15T02:48:46.876Z,92.27
2022-09-15T02:51:56.067Z,92.30
2022-09-15T02:55:03.470Z,92.70
2022-09-15T02:58:10.033Z,92.77
2022-09-15T03:01:18.644Z,92.92
2022-09-15T03:04:24.615Z,92.78
2022-09-15T03:07:34.442Z,92.81
2022-09-15T03:10:40.600Z,92.63
2022-09-15T03:13:47.561Z,92.34
2022-09-15T03:16:54.331Z,92.45
2022-09-15T03:20:01.197Z,92.28
2022-09-15T03:23:11.310Z,91.96
2022-09-15T03:26:18.467Z,92.00
2022-09-15T03:29:24.254Z,92.09
2022-09-15T03:32:31.175Z,92.18
2022-09-15T03:35:36.985Z,92.36
2022-09-15T03:38:46.676Z,91.98
2022-09-15T03:41:52.499Z,92.10
2022-09-15T03:44:59.454Z,91.97
2022-09-15T03:48:06.029Z,92.05
2022-09-15T03:51:14.039Z,92.15
2022-09-15T03:54:22.889Z,91.92
2022-09-15T03:57:29.501Z,91.99
2022-09-15T04:00:35.369Z,92.08
2022-09-15T04:03:48.873Z,91.82
2022-09-15T04:06:56.566Z,91.96
2022-09-15T04:10:06.720Z,91.86
2022-09-15T04:13:12.816Z,91.69
2022-09-15T04:16:23.509Z,91.48
2022-09-15T04:19:29.821Z,91.23
2022-09-15T04:22:36.906Z,91.22
2022-09-15T04:25:46.020Z,91.01
2022-09-15T04:28:53.529Z,91.21
2022-09-15T04:31:59.838Z,90.91
2022-09-15T04:35:09.569Z,91.20
2022-09-15T04:38:15.770Z,91.24
2022-09-15T04:41:26.498Z,91.06
2022-09-15T04:44:32.875Z,90.83
2022-09-15T04:47:39.994Z,91.14
2022-09-15T04:50:46.342Z,90.64
2022-09-15T04:53:53.816Z,90.13
2022-09-15T04:57:04.813Z,90.47
2022-09-15T05:00:16.629Z,90.27
2022-09-15T05:03:22.812Z,90.05
2022-09-15T05:06:31.241Z,89.90
2022-09-15T05:09:37.474Z,90.47
2022-09-15T05:12:47.142Z,90.08
2022-09-15T05:15:53.253Z,89.76
2022-09-15T05:19:03.704Z,89.84
2022-09-15T05:22:09.832Z,89.30
2022-09-15T05:25:16.887Z,89.47
2022-09-15T05:28:25.891Z,88.98
2022-09-15T05:31:35.359Z,88.92
2022-09-15T05:34:41.738Z,88.72
2022-09-15T05:37:48.678Z,88.30
2022-09-15T05:40:54.985Z,88.46
2022-09-15T05:44:06.693Z,87.98
2022-09-15T05:47:13.681Z,87.99
2022-09-15T05:50:20.504Z,87.66
2022-09-15T05:53:27.530Z,88.03
2022-09-15T05:56:34.269Z,88.00
2022-09-15T05:59:44.172Z,87.80
2022-09-15T06:02:51.002Z,87.60
2022-09-15T06:06:03.351Z,89.00
2022-09-15T06:09:10.320Z,89.03
2022-09-15T06:12:18.238Z,89.88
2022-09-15T06:15:28.310Z,90.65
2022-09-15T06:18:34.225Z,91.06
2022-09-15T06:21:41.267Z,90.97
2022-09-15T06:24:47.144Z,91.99
2022-09-15T06:27:54.543Z,92.05
2022-09-15T06:31:03.295Z,91.62
2022-09-15T06:34:11.578Z,91.44
2022-09-15T06:37:18.156Z,92.45
2022-09-15T06:40:25.249Z,92.78
2022-09-15T06:43:31.213Z,93.34
2022-09-15T06:46:41.131Z,93.96
2022-09-15T06:49:47.257Z,93.78
2022-09-15T06:52:54.208Z,93.67
2022-09-15T06:56:06.818Z,93.66
2022-09-15T06:59:15.116Z,94.03
2022-09-15T07:02:23.855Z,93.81
2022-09-15T07:05:31.637Z,94.02
2022-09-15T07:08:37.717Z,93.90
2022-09-15T07:11:45.195Z,93.75
2022-09-15T07:14:50.994Z,93.26
2022-09-15T07:18:03.378Z,92.88
2022-09-15T07:21:13.609Z,93.32
2022-09-15T07:24:20.604Z,93.09
2022-09-15T07:27:31.713Z,93.17
2022-09-15T07:30:39.552Z,92.90
2022-09-15T07:33:48.944Z,92.63
2022-09-15T07:36:55.685Z,92.94
2022-09-15T07:40:03.702Z,92.58
2022-09-15T07:43:10.632Z,91.79
2022-09-15T07:46:16.744Z,90.73
2022-09-15T07:49:26.301Z,90.23
2022-09-15T07:52:32.077Z,89.46
2022-09-15T07:55:38.803Z,89.33
2022-09-15T07:58:44.757Z,89.25
2022-09-15T08:01:54.553Z,88.94
2022-09-15T08:05:03.542Z,89.04
2022-09-15T08:08:10.496Z,89.02
2022-09-15T08:11:19.621Z,88.49
2022-09-15T08:14:26.568Z,88.34
2022-09-15T08:17:32.669Z,87.73
2022-09-15T08:20:45.091Z,87.47
2022-09-15T08:23:56.324Z,87.71
2022-09-15T08:27:03.303Z,87.21
2022-09-15T08:30:10.744Z,87.36
2022-09-15T08:33:17.794Z,86.28
2022-09-15T08:36:28.316Z,87.14
2022-09-15T08:39:35.565Z,86.84
2022-09-15T08:42:45.054Z,87.08
2022-09-15T08:46:03.406Z,87.16
2022-09-15T08:49:26.874Z,86.83
2022-09-15T08:52:49.029Z,86.95
2022-09-15T08:55:57.900Z,87.37
2022-09-15T08:59:06.553Z,86.59
2022-09-15T09:02:42.916Z,86.58
2022-09-15T09:06:01.011Z,86.79
2022-09-15T09:09:30.900Z,85.29
2022-09-15T09:12:49.751Z,85.04
2022-09-15T09:16:11.475Z,85.10
2022-09-15T09:20:00.804Z,85.92
2022-09-15T09:23:16.617Z,86.38
2022-09-15T09:26:26.218Z,84.94
2022-09-15T09:29:37.306Z,85.18
2022-09-15T09:32:50.058Z,84.73
2022-09-15T09:35:57.065Z,82.92
2022-09-15T09:39:06.687Z,82.53
2022-09-15T09:42:18.827Z,82.42
2022-09-15T09:45:26.686Z,82.31
2022-09-15T09:48:33.231Z,82.04
2022-09-15T09:51:41.800Z,82.09
2022-09-15T09:54:47.736Z,78.99
2022-09-15T09:57:57.786Z,78.92
2022-09-15T10:01:13.116Z,76.57
2022-09-15T10:04:22.361Z,77.47
2022-09-15T10:07:29.970Z,77.77
2022-09-15T10:10:36.899Z,78.02
2022-09-15T10:13:57.775Z,80.11
2022-09-15T10:17:09.372Z,76.79
2022-09-15T10:20:28.909Z,76.82
2022-09-15T10:23:37.254Z,76.85
2022-09-15T10:26:44.890Z,77.72
2022-09-15T10:29:54.935Z,77.97
2022-09-15T10:33:21.786Z,77.56
2022-09-15T10:36:33.243Z,76.13
2022-09-15T10:39:51.436Z,74.19
2022-09-15T10:43:06.659Z,74.54
2022-09-15T10:46:19.892Z,75.56
2022-09-15T10:49:37.451Z,76.33
2022-09-15T10:53:01.319Z,78.02
2022-09-15T10:56:20.254Z,79.07
2022-09-15T10:59:48.697Z,80.24
2022-09-15T11:03:17.131Z,80.96
2022-09-15T11:06:32.015Z,81.19
2022-09-15T11:09:46.921Z,80.58
2022-09-15T11:13:06.355Z,81.04
2022-09-15T11:16:30.434Z,80.44
2022-09-15T11:19:56.191Z,81.07
2022-09-15T11:23:13.021Z,80.66
2022-09-15T11:26:25.104Z,79.37
2022-09-15T11:29:37.293Z,79.57
2022-09-15T11:32:48.173Z,80.14
2022-09-15T11:36:07.870Z,80.91
2022-09-15T11:39:19.888Z,77.61
2022-09-15T11:42:33.905Z,76.84
2022-09-15T11:45:45.625Z,77.20
2022-09-15T11:48:59.361Z,77.85
2022-09-15T11:52:18.474Z,79.27
2022-09-15T11:55:30.582Z,79.52
2022-09-15T11:58:59.758Z,80.22
2022-09-15T12:02:20.443Z,80.29
2022-09-15T12:05:33.355Z,81.37
2022-09-15T12:08:46.113Z,80.76
2022-09-15T12:11:55.380Z,80.85
2022-09-15T12:15:03.626Z,80.93
2022-09-15T12:18:37.738Z,80.87
2022-09-15T12:21:54.047Z,80.66
2022-09-15T12:25:07.096Z,80.58
2022-09-15T12:28:40.675Z,80.59
2022-09-15T12:31:49.330Z,81.72
2022-09-15T12:35:10.143Z,81.24
2022-09-15T12:38:19.433Z,81.17
2022-09-15T12:41:30.779Z,81.87
2022-09-15T12:44:40.735Z,82.05
2022-09-15T12:47:57.316Z,81.84
2022-09-15T12:51:09.512Z,82.91
2022-09-15T12:54:26.103Z,83.34
2022-09-15T12:57:39.039Z,83.63
2022-09-15T13:01:16.655Z,83.86
2022-09-15T13:04:53.698Z,83.80
2022-09-15T13:08:01.178Z,84.06
2022-09-15T13:11:12.009Z,84.73
2022-09-15T13:14:28.880Z,84.91
2022-09-15T13:17:36.823Z,84.82
2022-09-15T13:20:51.815Z,84.42
2022-09-15T13:23:58.851Z,83.65
2022-09-15T13:27:10.010Z,82.59
2022-09-15T13:30:36.593Z,82.47
2022-09-15T13:38:20.017Z,84.77
2022-09-15T13:41:53.766Z,84.83
2022-09-15T13:45:24.979Z,84.60
2022-09-15T13:48:59.365Z,84.80
2022-09-15T13:52:22.884Z,85.48
2022-09-15T13:55:32.952Z,85.78
2022-09-15T13:58:59.190Z,85.69
2022-09-15T14:02:13.086Z,86.00
2022-09-15T14:05:24.295Z,86.17
2022-09-15T14:08:35.231Z,86.11
2022-09-15T14:11:42.253Z,85.87
2022-09-15T14:14:54.995Z,85.62
2022-09-15T14:18:01.186Z,85.74
2022-09-15T14:21:20.225Z,85.62
2022-09-15T14:24:30.409Z,85.86
2022-09-15T14:27:39.507Z,85.71
2022-09-15T14:30:51.184Z,85.60
2022-09-15T14:33:57.974Z,85.63
2022-09-15T14:37:09.662Z,85.53
2022-09-15T14:40:23.801Z,85.32
2022-09-15T14:43:31.487Z,85.19
2022-09-15T14:46:41.514Z,85.04
2022-09-15T14:49:47.319Z,84.94
2022-09-15T14:53:06.368Z,84.97
2022-09-15T14:56:16.014Z,84.93
2022-09-15T14:59:28.884Z,84.77
2022-09-15T15:02:51.959Z,84.54
2022-09-15T15:06:25.348Z,84.57
2022-09-15T15:09:35.506Z,84.91
2022-09-15T15:12:45.590Z,84.27
2022-09-15T15:15:52.032Z,83.90
2022-09-15T15:18:59.270Z,83.40
2022-09-15T15:22:19.251Z,83.47
2022-09-15T15:25:32.948Z,83.54
2022-09-15T15:28:40.405Z,83.87
2022-09-15T15:31:47.307Z,84.14
2022-09-15T15:34:55.904Z,84.70
2022-09-15T15:38:06.596Z,84.97
2022-09-15T15:41:23.285Z,84.67
2022-09-15T15:44:32.597Z,84.05
2022-09-15T15:47:39.925Z,84.03
2022-09-15T15:50:46.995Z,84.12
2022-09-15T15:53:52.980Z,83.68
2022-09-15T15:57:23.308Z,84.13
2022-09-15T16:00:32.801Z,84.28
2022-09-15T16:03:39.642Z,84.08
2022-09-15T16:06:48.518Z,83.66
2022-09-15T16:09:55.773Z,83.05
2022-09-15T16:13:06.970Z,83.02
2022-09-15T16:16:18.363Z,83.05
2022-09-15T16:19:25.086Z,83.56
2022-09-15T16:22:32.378Z,83.63
2022-09-15T16:25:42.696Z,83.17
2022-09-15T16:28:53.138Z,83.16
2022-09-15T16:31:59.702Z,83.46
2022-09-15T16:35:21.407Z,83.60
2022-09-15T16:38:28.802Z,83.56
2022-09-15T16:41:39.229Z,83.86
2022-09-15T16:44:48.417Z,83.90
2022-09-15T16:47:55.302Z,84.24
2022-09-15T16:51:20.927Z,84.86
2022-09-15T16:54:28.182Z,85.64
2022-09-15T16:57:34.882Z,85.81
2022-09-15T17:00:45.964Z,85.89
2022-09-15T17:03:52.516Z,85.42
2022-09-15T17:06:59.694Z,86.04
2022-09-15T17:10:09.868Z,86.27
2022-09-15T17:13:19.649Z,86.00
2022-09-15T17:16:28.417Z,85.63
2022-09-15T17:19:35.468Z,84.71
2022-09-15T17:22:41.360Z,84.28
2022-09-15T17:25:52.944Z,83.68
2022-09-15T17:28:58.960Z,83.22
2022-09-15T17:32:11.911Z,83.26
2022-09-15T17:35:24.943Z,82.60
2022-09-15T17:38:32.143Z,82.63
2022-09-15T17:41:38.970Z,82.49
2022-09-15T17:44:45.845Z,82.19
2022-09-15T17:47:55.777Z,82.14
2022-09-15T17:51:03.349Z,82.17
2022-09-15T17:54:13.588Z,81.62
2022-09-15T17:57:20.556Z,81.28
2022-09-15T18:00:28.292Z,81.42
2022-09-15T18:03:40.187Z,81.38
2022-09-15T18:06:46.252Z,81.57
2022-09-15T18:09:53.174Z,81.64
2022-09-15T18:13:00.090Z,81.42
2022-09-15T18:16:10.649Z,81.08
2022-09-15T18:19:19.625Z,81.57
2022-09-15T18:22:26.889Z,81.74
2022-09-15T18:25:34.837Z,82.14
2022-09-15T18:28:41.681Z,82.07
2022-09-15T18:31:47.806Z,82.39
2022-09-15T18:34:57.634Z,82.54
2022-09-15T18:38:04.153Z,82.68
2022-09-15T18:41:13.623Z,82.55
2022-09-15T18:44:20.079Z,82.75
2022-09-15T18:47:27.087Z,82.55
2022-09-15T18:50:36.030Z,82.87
2022-09-15T18:53:43.166Z,83.20
2022-09-15T18:56:49.402Z,83.45
2022-09-15T18:59:56.387Z,83.57
2022-09-15T19:03:06.629Z,83.69
2022-09-15T19:06:16.539Z,83.94
2022-09-15T19:09:22.834Z,84.01
2022-09-15T19:12:29.681Z,84.38
2022-09-15T19:15:36.615Z,84.60
2022-09-15T19:18:45.157Z,84.84
2022-09-15T19:21:54.228Z,85.45
2022-09-15T19:25:03.721Z,85.50
2022-09-15T19:28:10.266Z,85.55
2022-09-15T19:31:17.426Z,85.60
2022-09-15T19:34:24.279Z,85.96
2022-09-15T19:37:34.236Z,86.15
2022-09-15T19:40:40.285Z,86.25
2022-09-15T19:43:47.396Z,86.19
2022-09-15T19:46:53.723Z,86.26
2022-09-15T19:50:00.774Z,86.04
2022-09-15T19:53:11.287Z,86.35
2022-09-15T19:56:22.443Z,86.33
2022-09-15T19:59:31.304Z,86.56
2022-09-15T20:07:23.728Z,87.67
2022-09-15T20:10:35.335Z,87.84
2022-09-15T20:13:44.390Z,88.08
2022-09-15T20:16:54.186Z,88.08
2022-09-15T20:20:03.843Z,88.05
2022-09-15T20:23:12.411Z,87.76
2022-09-15T20:26:22.684Z,88.10
2022-09-15T20:29:31.180Z,88.07
2022-09-15T20:32:38.791Z,88.10
2022-09-15T20:35:47.129Z,88.59
2022-09-15T20:38:54.854Z,88.62
2022-09-15T20:42:06.792Z,88.32
2022-09-15T20:45:14.560Z,88.75
2022-09-15T20:48:22.882Z,89.06
2022-09-15T20:51:32.604Z,88.84
2022-09-15T20:54:40.974Z,88.87
2022-09-15T20:57:51.609Z,88.83
2022-09-15T21:01:08.109Z,88.87
2022-09-15T21:04:15.496Z,88.82
2022-09-15T21:07:23.632Z,89.02
2022-09-15T21:10:31.588Z,89.20
2022-09-15T21:13:44.008Z,89.04
2022-09-15T21:16:51.269Z,89.28
2022-09-15T21:19:59.082Z,89.21
2022-09-15T21:23:07.765Z,89.12
2022-09-15T21:26:18.533Z,89.08
2022-09-15T21:29:29.128Z,89.19
2022-09-15T21:32:36.865Z,88.93
2022-09-15T21:35:45.216Z,88.99
2022-09-15T21:38:56.811Z,88.93
2022-09-15T21:42:03.777Z,88.88
2022-09-15T21:45:15.572Z,88.88
2022-09-15T21:48:22.589Z,89.26
2022-09-15T21:51:33.722Z,89.09
2022-09-15T21:54:41.256Z,89.24
2022-09-15T21:57:50.081Z,89.25
2022-09-15T22:01:00.576Z,89.09
2022-09-15T22:04:11.721Z,88.99
2022-09-15T22:07:20.193Z,88.86
2022-09-15T22:10:28.685Z,88.69
2022-09-15T22:13:37.196Z,88.34
2022-09-15T22:16:48.247Z,88.33
2022-09-15T22:19:55.527Z,88.09
2022-09-15T22:23:05.172Z,88.45
2022-09-15T22:26:14.280Z,88.26
2022-09-15T22:29:21.291Z,88.28
2022-09-15T22:32:31.351Z,87.87
2022-09-15T22:35:38.526Z,87.89
2022-09-15T22:38:46.490Z,87.83
2022-09-15T22:41:55.213Z,87.74
2022-09-15T22:45:03.325Z,87.68
2022-09-15T22:48:14.543Z,87.47
2022-09-15T22:51:22.763Z,87.61
2022-09-15T22:54:32.627Z,87.65
2022-09-15T22:57:40.168Z,87.47
2022-09-15T23:00:48.028Z,87.44
2022-09-15T23:03:59.029Z,87.02
2022-09-15T23:07:06.362Z,87.41
2022-09-15T23:10:12.160Z,86.99
2022-09-15T23:13:18.461Z,87.15
2022-09-15T23:16:25.262Z,87.17
2022-09-15T23:19:34.697Z,87.02
2022-09-15T23:22:40.940Z,86.73
2022-09-15T23:25:47.862Z,86.50
2022-09-15T23:28:54.052Z,86.46
2022-09-15T23:32:00.698Z,86.68
2022-09-15T23:35:11.363Z,86.46
2022-09-15T23:38:18.274Z,86.54
2022-09-15T23:41:24.916Z,86.53
2022-09-15T23:44:31.651Z,86.68
2022-09-15T23:47:38.096Z,86.84
2022-09-15T23:50:47.847Z,86.72
2022-09-15T23:53:53.796Z,86.84
2022-09-15T23:57:01.002Z,86.95
